»·PEaware :: WAT390 KBLI-KOAK

WAT390 :: KBLI-KOAK

FLIGHT INFORMATION

Flight Status: Arrived
Operator:
Walker Air Transport
More flights by this operator :: More flights under this callsign
Pilot: Ewen S. (18928)
Aircraft: AIRBUS A340-600
(A346)
More flights by this aircraft type
Origin: KBLI Bellingham Intl
United States
Destination: KOAK Metro Oakland Intl
United States
More flights between these airports :: More routes between these airports
Route: KIENO6 CVV HAROB HISKU Q5 HUPTU SPAMY WNDSR2
File this flight plan on PilotEdge
Remarks:
Altitude:
(Current/Filed)
37,000ft
Speed:
(Current/Filed)
460kts
Departed: 02-Feb-23 12:26 PM
Arrived: 02-Feb-23 02:21 PM
Distance/Time
Traveled:
665nm/1:54
Distance/Time
To Go:
Arrived

Flight Plot

Page will automatically refresh every two minutes.

Flight plan parsing failed; only flown route is shown


Map Options




Map Legend


Flown Route
Filed Route
Departure Airport
Arrival Airport
Navaid (VOR, NDB)
Fix

Horizontal Profiles

Position Reports

Time Latitude Longitude Heading Altitude Ground
Speed
02-Feb-23 11:57 48.795128 -122.533903 50 172ft 0kts
02-Feb-23 11:58 48.795128 -122.533903 50 172ft 0kts
02-Feb-23 11:59 48.795128 -122.533903 50 172ft 0kts
02-Feb-23 12:00 48.795128 -122.533903 50 172ft 0kts
02-Feb-23 12:01 48.795128 -122.533903 50 172ft 0kts
02-Feb-23 12:02 48.795128 -122.533903 50 172ft 0kts
02-Feb-23 12:03 48.795128 -122.533903 50 172ft 0kts
02-Feb-23 12:04 48.795128 -122.533903 50 172ft 0kts
02-Feb-23 12:05 48.795128 -122.533903 50 172ft 0kts
02-Feb-23 12:06 48.795128 -122.533903 50 172ft 0kts
02-Feb-23 12:07 48.795128 -122.533903 50 172ft 0kts
02-Feb-23 12:08 48.795128 -122.533903 50 172ft 0kts
02-Feb-23 12:09 48.795128 -122.533903 50 172ft 0kts
02-Feb-23 12:10 48.795128 -122.533903 50 172ft 0kts
02-Feb-23 12:11 48.795128 -122.533903 50 172ft 0kts
02-Feb-23 12:12 48.795128 -122.533903 50 172ft 0kts
02-Feb-23 12:13 48.795128 -122.533903 50 172ft 0kts
02-Feb-23 12:13 48.795128 -122.533903 50 172ft 0kts
02-Feb-23 12:15 48.795128 -122.533903 50 172ft 0kts
02-Feb-23 12:16 48.795128 -122.533903 50 172ft 0kts
02-Feb-23 12:17 48.795198 -122.533770 49 172ft 2kts
02-Feb-23 12:17 48.795253 -122.533720 18 171ft 0kts
02-Feb-23 12:18 48.795254 -122.533720 18 171ft 0kts
02-Feb-23 12:20 48.795254 -122.533720 18 171ft 0kts
02-Feb-23 12:21 48.795341 -122.533673 18 171ft 4kts
02-Feb-23 12:22 48.797097 -122.535581 339 172ft 13kts
02-Feb-23 12:22 48.800415 -122.535895 352 177ft 14kts
02-Feb-23 12:23 48.801035 -122.536146 353 177ft 0kts
02-Feb-23 12:24 48.801357 -122.536219 342 177ft 5kts
02-Feb-23 12:26 48.797743 -122.537575 178 172ft 101kts
02-Feb-23 12:26 48.760304 -122.548321 205 2690ft 182kts
02-Feb-23 12:27 48.707226 -122.586249 183 5251ft 250kts
02-Feb-23 12:28 48.637160 -122.588259 194 9362ft 258kts
02-Feb-23 12:29 48.561321 -122.614536 196 11939ft 316kts
02-Feb-23 12:30 48.467591 -122.647212 196 14634ft 362kts
02-Feb-23 12:31 48.368164 -122.681654 196 18021ft 375kts
02-Feb-23 12:32 48.264418 -122.717491 196 20926ft 392kts
02-Feb-23 12:33 48.155431 -122.753342 195 23535ft 409kts
02-Feb-23 12:34 48.050219 -122.787093 195 25766ft 423kts
02-Feb-23 12:35 47.933005 -122.824444 195 27888ft 437kts
02-Feb-23 12:36 47.812919 -122.862354 195 30273ft 439kts
02-Feb-23 12:37 47.694925 -122.899579 195 32714ft 433kts
02-Feb-23 12:38 47.577705 -122.936397 195 34883ft 428kts
02-Feb-23 12:39 47.460690 -122.973040 195 36075ft 435kts
02-Feb-23 12:40 47.341964 -123.009976 195 36088ft 435kts
02-Feb-23 12:41 47.221937 -123.036697 187 36089ft 440kts
02-Feb-23 12:42 47.098832 -123.035294 183 36087ft 441kts
02-Feb-23 12:43 46.975729 -123.030994 183 36074ft 443kts
02-Feb-23 12:44 46.853048 -123.026545 183 36092ft 443kts
02-Feb-23 12:45 46.729908 -123.022067 183 36092ft 443kts
02-Feb-23 12:46 46.607478 -123.017638 182 36092ft 442kts
02-Feb-23 12:47 46.484165 -123.013194 183 36093ft 440kts
02-Feb-23 12:48 46.361158 -123.008784 183 36106ft 441kts
02-Feb-23 12:49 46.238368 -123.004375 183 36109ft 441kts
02-Feb-23 12:50 46.115643 -123.000032 183 36078ft 440kts
02-Feb-23 12:51 45.992890 -122.995693 183 36074ft 440kts
02-Feb-23 12:52 45.870262 -122.991366 182 36091ft 439kts
02-Feb-23 12:53 45.748475 -122.987055 183 36090ft 439kts
02-Feb-23 12:54 45.625241 -122.982764 183 36128ft 441kts
02-Feb-23 12:55 45.502036 -122.978473 182 36126ft 440kts
02-Feb-23 12:56 45.379008 -122.974209 182 36096ft 440kts
02-Feb-23 12:57 45.255677 -122.969948 183 36103ft 441kts
02-Feb-23 12:58 45.132611 -122.965756 182 36156ft 441kts
02-Feb-23 12:59 45.009185 -122.961516 182 36146ft 442kts
02-Feb-23 13:00 44.885611 -122.957277 182 36200ft 442kts
02-Feb-23 13:01 44.762668 -122.953087 182 36216ft 439kts
02-Feb-23 13:02 44.639742 -122.948849 183 36185ft 439kts
02-Feb-23 13:03 44.516576 -122.944617 182 36206ft 439kts
02-Feb-23 13:04 44.394261 -122.940985 182 36206ft 438kts
02-Feb-23 13:05 44.272285 -122.937285 182 36211ft 437kts
02-Feb-23 13:06 44.150336 -122.933577 182 36260ft 437kts
02-Feb-23 13:07 44.028324 -122.929837 182 36262ft 437kts
02-Feb-23 13:08 43.907062 -122.926220 181 36226ft 433kts
02-Feb-23 13:09 43.785975 -122.922491 182 36233ft 434kts
02-Feb-23 13:10 43.665328 -122.918838 182 36236ft 433kts
02-Feb-23 13:11 43.543535 -122.915196 182 36173ft 437kts
02-Feb-23 13:12 43.422627 -122.911637 181 36211ft 431kts
02-Feb-23 13:13 43.302678 -122.907999 182 36219ft 430kts
02-Feb-23 13:14 43.183186 -122.904530 182 36245ft 428kts
02-Feb-23 13:15 43.064194 -122.901019 181 36257ft 427kts
02-Feb-23 13:16 42.945168 -122.897487 182 36284ft 428kts
02-Feb-23 13:17 42.826581 -122.893959 182 36278ft 427kts
02-Feb-23 13:18 42.707671 -122.890381 181 36252ft 428kts
02-Feb-23 13:19 42.588226 -122.886834 181 36250ft 426kts
02-Feb-23 13:20 42.469711 -122.883345 182 36253ft 426kts
02-Feb-23 13:21 42.351036 -122.880224 181 36269ft 424kts
02-Feb-23 13:22 42.232804 -122.876848 181 36244ft 425kts
02-Feb-23 13:23 42.114577 -122.873510 181 36242ft 425kts
02-Feb-23 13:24 41.996283 -122.870155 181 36217ft 423kts
02-Feb-23 13:25 41.878072 -122.866772 182 36250ft 425kts
02-Feb-23 13:26 41.759642 -122.863398 182 36270ft 424kts
02-Feb-23 13:27 41.641635 -122.860073 182 36247ft 423kts
02-Feb-23 13:28 41.523568 -122.856760 182 36259ft 422kts
02-Feb-23 13:29 41.405075 -122.853305 181 36281ft 425kts
02-Feb-23 13:30 41.287007 -122.848895 180 36288ft 425kts
02-Feb-23 13:31 41.169077 -122.841743 180 36293ft 422kts
02-Feb-23 13:32 41.051559 -122.834699 180 36302ft 422kts
02-Feb-23 13:33 40.933693 -122.827678 179 36322ft 424kts
02-Feb-23 13:34 40.815686 -122.820769 179 36348ft 422kts
02-Feb-23 13:35 40.697954 -122.813768 180 36353ft 422kts
02-Feb-23 13:36 40.580595 -122.806842 180 36340ft 423kts
02-Feb-23 13:37 40.462886 -122.800005 179 36374ft 421kts
02-Feb-23 13:38 40.345832 -122.793117 180 36408ft 422kts
02-Feb-23 13:39 40.228176 -122.786264 179 36391ft 423kts
02-Feb-23 13:40 40.110952 -122.779507 179 36391ft 420kts
02-Feb-23 13:41 39.993630 -122.772759 179 36396ft 419kts
02-Feb-23 13:42 39.876922 -122.765941 179 35410ft 417kts
02-Feb-23 13:43 39.761183 -122.759277 178 33179ft 415kts
02-Feb-23 13:44 39.645558 -122.752507 178 30830ft 416kts
02-Feb-23 13:45 39.529881 -122.743248 173 28388ft 421kts
02-Feb-23 13:46 39.415420 -122.701064 161 26664ft 424kts
02-Feb-23 13:47 39.308141 -122.645939 162 24794ft 407kts
02-Feb-23 13:48 39.201748 -122.595063 169 24525ft 387kts
02-Feb-23 13:49 39.099989 -122.576799 176 23088ft 359kts
02-Feb-23 13:50 39.003516 -122.559114 172 21480ft 342kts
02-Feb-23 13:51 38.912431 -122.536367 171 20027ft 325kts
02-Feb-23 13:52 38.829314 -122.515638 171 18715ft 312kts
02-Feb-23 13:53 38.744959 -122.494529 171 17307ft 306kts
02-Feb-23 13:54 38.661843 -122.475959 175 15971ft 297kts
02-Feb-23 13:55 38.580255 -122.463476 174 14657ft 292kts
02-Feb-23 13:56 38.499750 -122.451229 174 13380ft 288kts
02-Feb-23 13:57 38.421080 -122.439135 174 12151ft 282kts
02-Feb-23 13:58 38.343963 -122.427380 174 10931ft 275kts
02-Feb-23 13:59 38.270037 -122.416112 174 10002ft 252kts
02-Feb-23 14:00 38.202538 -122.405864 174 9427ft 241kts
02-Feb-23 14:01 38.136860 -122.395787 173 8419ft 233kts
02-Feb-23 14:02 38.073086 -122.386024 172 7434ft 228kts
02-Feb-23 14:03 38.010354 -122.368017 151 6922ft 247kts
02-Feb-23 14:04 37.954154 -122.314945 147 6931ft 250kts
02-Feb-23 14:05 37.898839 -122.261992 147 6877ft 251kts
02-Feb-23 14:06 37.842677 -122.208695 147 5756ft 246kts
02-Feb-23 14:07 37.788966 -122.156874 140 4952ft 247kts
02-Feb-23 14:08 37.744996 -122.089412 132 4933ft 235kts
02-Feb-23 14:09 37.708317 -122.029743 132 4941ft 209kts
02-Feb-23 14:10 37.675567 -121.969067 125 4698ft 208kts
02-Feb-23 14:11 37.645629 -121.905904 125 3966ft 208kts
02-Feb-23 14:12 37.605338 -121.864307 199 3950ft 204kts
02-Feb-23 14:13 37.565201 -121.912665 223 3954ft 197kts
02-Feb-23 14:14 37.553612 -121.976880 282 3962ft 217kts
02-Feb-23 14:15 37.584318 -122.038586 306 3582ft 204kts
02-Feb-23 14:16 37.620725 -122.092641 307 2491ft 201kts
02-Feb-23 14:17 37.656265 -122.146274 310 1416ft 194kts
02-Feb-23 14:18 37.687994 -122.193971 311 493ft 153kts
02-Feb-23 14:19 37.712104 -122.230215 310 22ft 72kts
02-Feb-23 14:20 37.718745 -122.240050 321 22ft 19kts
02-Feb-23 14:21 37.718738 -122.237165 124 22ft 17kts
02-Feb-23 14:22 37.715132 -122.230995 130 22ft 23kts
02-Feb-23 14:23 37.711181 -122.224847 103 22ft 13kts
02-Feb-23 14:24 37.714694 -122.219915 49 22ft 23kts
02-Feb-23 14:25 37.714229 -122.216543 149 22ft 6kts
02-Feb-23 14:26 37.712994 -122.216315 127 22ft 0kts
02-Feb-23 14:27 37.712976 -122.216287 127 22ft 0kts
02-Feb-23 14:28 37.712976 -122.216287 127 22ft 0kts

Navigation Log

Ident Type
Flight plan parsing failed, navigation log unavailable